createdAt,value
2022-12-04T00:01:43.520Z,25.55
2022-12-04T00:04:13.574Z,28.80
2022-12-04T00:06:41.016Z,27.27
2022-12-04T00:09:08.828Z,27.08
2022-12-04T00:11:36.194Z,27.10
2022-12-04T00:14:07.231Z,29.40
2022-12-04T00:16:35.425Z,25.63
2022-12-04T00:19:02.838Z,27.98
2022-12-04T00:21:30.146Z,24.15
2022-12-04T00:23:57.444Z,28.10
2022-12-04T00:26:28.978Z,28.23
2022-12-04T00:28:56.558Z,26.08
2022-12-04T00:31:25.322Z,25.98
2022-12-04T00:33:53.086Z,27.20
2022-12-04T00:36:22.355Z,28.60
2022-12-04T00:38:49.679Z,28.13
2022-12-04T00:41:18.285Z,27.75
2022-12-04T00:43:48.434Z,29.15
2022-12-04T00:46:16.081Z,29.55
2022-12-04T00:48:43.468Z,28.08
2022-12-04T00:51:12.241Z,27.65
2022-12-04T00:53:39.553Z,21.50
2022-12-04T00:56:11.644Z,29.38
2022-12-04T00:58:39.039Z,29.67
2022-12-04T01:01:08.917Z,29.80
2022-12-04T01:03:36.554Z,29.00
2022-12-04T01:06:03.901Z,29.77
2022-12-04T01:08:31.476Z,31.40
2022-12-04T01:10:58.804Z,32.10
2022-12-04T01:13:26.605Z,27.08
2022-12-04T01:15:53.944Z,28.58
2022-12-04T01:18:21.277Z,30.33
2022-12-04T01:20:49.084Z,29.20
2022-12-04T01:23:16.410Z,28.52
2022-12-04T01:25:57.614Z,27.70
2022-12-04T01:28:25.088Z,29.08
2022-12-04T01:31:02.654Z,32.40
2022-12-04T01:33:34.494Z,31.73
2022-12-04T01:36:02.371Z,28.92
2022-12-04T01:38:30.209Z,30.42
2022-12-04T01:40:58.202Z,30.83
2022-12-04T01:43:26.350Z,29.50
2022-12-04T01:45:54.768Z,29.10
2022-12-04T01:48:31.887Z,27.95
2022-12-04T01:51:02.256Z,28.77
2022-12-04T01:53:30.299Z,27.77
2022-12-04T01:55:58.214Z,30.58
2022-12-04T01:58:28.152Z,27.10
2022-12-04T02:00:58.450Z,30.70
2022-12-04T02:03:26.410Z,30.30
2022-12-04T02:05:53.643Z,30.65
2022-12-04T02:08:20.987Z,27.63
2022-12-04T02:11:06.828Z,31.50
2022-12-04T02:13:41.552Z,29.77
2022-12-04T02:16:08.794Z,30.08
2022-12-04T02:18:46.548Z,28.83
2022-12-04T02:21:22.936Z,33.33
2022-12-04T02:24:09.141Z,31.65
2022-12-04T02:26:42.306Z,28.77
2022-12-04T02:29:15.819Z,28.45
2022-12-04T02:32:01.625Z,30.67
2022-12-04T02:34:36.872Z,30.70
2022-12-04T02:37:09.456Z,32.00
2022-12-04T02:40:00.037Z,29.73
2022-12-04T02:42:27.254Z,30.60
2022-12-04T02:44:58.015Z,29.55
2022-12-04T02:47:26.124Z,31.05
2022-12-04T02:49:59.344Z,31.75
2022-12-04T02:52:35.127Z,30.52
2022-12-04T02:55:08.644Z,28.77
2022-12-04T02:57:39.223Z,29.42
2022-12-04T03:00:08.916Z,28.63
2022-12-04T03:05:12.236Z,30.25
2022-12-04T03:08:08.877Z,32.95
2022-12-04T03:10:39.145Z,29.27
2022-12-04T03:13:15.512Z,32.08
2022-12-04T03:15:47.962Z,31.23
2022-12-04T03:18:29.592Z,29.95
2022-12-04T03:21:05.818Z,32.20
2022-12-04T03:23:36.058Z,32.97
2022-12-04T03:26:06.160Z,31.67
2022-12-04T03:28:39.442Z,28.77
2022-12-04T03:31:08.888Z,31.27
2022-12-04T03:33:41.148Z,30.33
2022-12-04T03:36:08.431Z,30.90
2022-12-04T03:38:38.732Z,32.78
2022-12-04T03:41:27.142Z,30.60
2022-12-04T03:44:09.808Z,30.10
2022-12-04T03:46:42.639Z,31.27
2022-12-04T03:49:16.386Z,28.60
2022-12-04T03:51:49.591Z,31.17
2022-12-04T03:54:21.227Z,31.95
2022-12-04T03:56:52.381Z,30.30
2022-12-04T03:59:23.199Z,32.85
2022-12-04T04:01:51.599Z,28.33
2022-12-04T04:04:22.148Z,29.55
2022-12-04T04:06:54.066Z,30.15
2022-12-04T04:09:23.446Z,33.67
2022-12-04T04:11:55.864Z,28.33
2022-12-04T04:14:43.643Z,29.27
2022-12-04T04:17:37.980Z,26.45
2022-12-04T04:20:27.978Z,27.00
2022-12-04T04:23:16.286Z,30.48
2022-12-04T04:25:44.977Z,30.15
2022-12-04T04:28:47.794Z,33.40
2022-12-04T04:31:15.144Z,32.15
2022-12-04T04:33:51.516Z,31.83
2022-12-04T04:36:32.338Z,29.35
2022-12-04T04:39:15.022Z,31.17
2022-12-04T04:41:51.546Z,29.75
2022-12-04T04:44:24.410Z,31.13
2022-12-04T04:46:53.332Z,30.73
2022-12-04T04:49:24.265Z,29.13
2022-12-04T04:51:51.540Z,29.95
2022-12-04T04:54:19.972Z,33.42
2022-12-04T04:56:47.799Z,29.38
2022-12-04T04:59:15.514Z,29.30
2022-12-04T05:01:44.468Z,29.45
2022-12-04T05:04:11.840Z,31.97
2022-12-04T05:06:39.163Z,31.95
2022-12-04T05:09:06.760Z,30.73
2022-12-04T05:11:36.390Z,34.33
2022-12-04T05:14:03.639Z,33.13
2022-12-04T05:16:31.030Z,31.80
2022-12-04T05:19:17.055Z,30.02
2022-12-04T05:21:44.275Z,31.30
2022-12-04T05:24:11.563Z,31.90
2022-12-04T05:26:38.777Z,34.97
2022-12-04T05:29:06.001Z,30.95
2022-12-04T05:31:33.394Z,31.02
2022-12-04T05:34:00.752Z,31.40
2022-12-04T05:36:28.278Z,31.45
2022-12-04T05:38:55.608Z,34.70
2022-12-04T05:41:23.049Z,33.53
2022-12-04T05:43:50.375Z,30.98
2022-12-04T05:46:17.694Z,32.85
2022-12-04T05:48:44.943Z,34.03
2022-12-04T05:51:12.194Z,31.75
2022-12-04T05:53:39.623Z,32.50
2022-12-04T05:56:07.533Z,32.50
2022-12-04T05:58:38.386Z,32.17
2022-12-04T06:01:13.258Z,31.38
2022-12-04T06:03:40.707Z,32.92
2022-12-04T06:06:21.876Z,30.20
2022-12-04T06:08:50.224Z,32.97
2022-12-04T06:11:19.168Z,29.80
2022-12-04T06:13:47.166Z,34.35
2022-12-04T06:16:18.637Z,30.98
2022-12-04T06:18:49.063Z,32.95
2022-12-04T06:21:18.641Z,32.75
2022-12-04T06:23:46.122Z,31.38
2022-12-04T06:26:13.616Z,32.47
2022-12-04T06:28:41.191Z,28.77
2022-12-04T06:31:10.152Z,30.70
2022-12-04T06:33:37.693Z,31.77
2022-12-04T06:36:06.371Z,31.10
2022-12-04T06:38:34.017Z,24.05
2022-12-04T06:41:03.941Z,34.22
2022-12-04T06:43:31.273Z,30.92
2022-12-04T06:46:06.087Z,31.48
2022-12-04T06:48:33.870Z,27.48
2022-12-04T06:51:18.680Z,33.00
2022-12-04T06:53:46.878Z,30.77
2022-12-04T06:56:18.053Z,37.58
2022-12-04T06:58:49.674Z,29.25
2022-12-04T07:01:18.288Z,31.52
2022-12-04T07:03:51.024Z,26.60
2022-12-04T07:06:20.519Z,31.60
2022-12-04T07:08:48.886Z,31.75
2022-12-04T07:11:16.283Z,30.67
2022-12-04T07:13:43.540Z,29.33
2022-12-04T07:16:13.306Z,30.90
2022-12-04T07:18:40.608Z,30.05
2022-12-04T07:21:12.247Z,29.50
2022-12-04T07:23:39.580Z,30.40
2022-12-04T07:26:07.770Z,29.25
2022-12-04T07:28:36.175Z,29.98
2022-12-04T07:31:07.346Z,30.15
2022-12-04T07:33:35.033Z,30.65
2022-12-04T07:36:04.298Z,31.90
2022-12-04T07:38:32.236Z,28.52
2022-12-04T07:41:00.099Z,31.38
2022-12-04T07:43:27.735Z,29.20
2022-12-04T07:45:58.434Z,30.83
2022-12-04T07:48:31.743Z,33.67
2022-12-04T07:51:07.777Z,30.25
2022-12-04T07:53:35.923Z,31.65
2022-12-04T07:56:04.080Z,31.15
2022-12-04T07:58:31.334Z,30.45
2022-12-04T08:01:09.024Z,30.20
2022-12-04T08:03:36.387Z,29.95
2022-12-04T08:06:05.028Z,31.30
2022-12-04T08:08:32.695Z,30.63
2022-12-04T08:11:00.105Z,32.50
2022-12-04T08:13:27.329Z,31.63
2022-12-04T08:15:54.561Z,32.08
2022-12-04T08:18:21.833Z,32.20
2022-12-04T08:20:49.051Z,29.60
2022-12-04T08:23:18.721Z,30.17
2022-12-04T08:28:13.145Z,28.75
2022-12-04T08:30:40.362Z,33.55
2022-12-04T08:33:10.333Z,29.05
2022-12-04T08:35:37.667Z,30.88
2022-12-04T08:38:04.979Z,31.42
2022-12-04T08:40:33.254Z,30.65
2022-12-04T08:43:00.484Z,34.85
2022-12-04T08:45:27.878Z,31.17
2022-12-04T08:47:55.102Z,32.28
2022-12-04T08:50:22.360Z,29.95
2022-12-04T08:52:49.599Z,30.77
2022-12-04T08:55:16.886Z,36.45
2022-12-04T08:57:44.186Z,34.40
2022-12-04T09:00:12.934Z,32.10
2022-12-04T09:02:40.244Z,30.25
2022-12-04T09:05:07.602Z,30.77
2022-12-04T09:07:34.936Z,31.75
2022-12-04T09:10:02.502Z,26.20
2022-12-04T09:12:29.778Z,29.48
2022-12-04T09:14:57.002Z,31.67
2022-12-04T09:17:24.290Z,31.05
2022-12-04T09:19:52.008Z,29.45
2022-12-04T09:22:20.975Z,31.17
2022-12-04T09:24:48.221Z,32.03
2022-12-04T09:27:17.041Z,29.67
2022-12-04T09:29:46.514Z,26.53
2022-12-04T09:32:13.867Z,30.60
2022-12-04T09:34:41.121Z,31.05
2022-12-04T09:37:08.426Z,29.90
2022-12-04T09:39:35.741Z,30.35
2022-12-04T09:42:06.024Z,29.55
2022-12-04T09:44:41.612Z,28.52
2022-12-04T09:47:36.233Z,26.05
2022-12-04T09:50:13.122Z,27.02
2022-12-04T09:52:49.821Z,29.08
2022-12-04T09:55:23.398Z,31.17
2022-12-04T09:57:53.986Z,30.60
2022-12-04T10:00:24.534Z,27.20
2022-12-04T10:03:03.970Z,28.33
2022-12-04T10:05:49.990Z,30.02
2022-12-04T10:08:22.290Z,27.27
2022-12-04T10:10:57.622Z,26.63
2022-12-04T10:13:27.949Z,28.63
2022-12-04T10:16:04.571Z,29.45
2022-12-04T10:18:47.302Z,26.10
2022-12-04T10:21:21.148Z,24.45
2022-12-04T10:23:51.371Z,27.02
2022-12-04T10:26:20.975Z,22.75
2022-12-04T10:28:55.631Z,24.85
2022-12-04T10:31:23.938Z,23.45
2022-12-04T10:33:53.519Z,24.92
2022-12-04T10:36:22.432Z,23.98
2022-12-04T10:38:58.881Z,26.83
2022-12-04T10:41:38.848Z,20.65
2022-12-04T10:44:06.148Z,21.45
2022-12-04T10:46:36.423Z,22.70
2022-12-04T10:49:09.594Z,21.77
2022-12-04T10:51:42.077Z,23.17
2022-12-04T10:54:21.839Z,22.02
2022-12-04T10:59:16.486Z,21.45
2022-12-04T11:01:43.801Z,20.98
2022-12-04T11:04:20.351Z,22.42
2022-12-04T11:06:49.878Z,21.33
2022-12-04T11:09:24.302Z,19.80
2022-12-04T11:11:52.522Z,22.08
2022-12-04T11:14:23.773Z,20.67
2022-12-04T11:17:00.484Z,23.08
2022-12-04T11:19:29.244Z,20.58
2022-12-04T11:22:04.629Z,19.60
2022-12-04T11:24:31.854Z,23.52
2022-12-04T11:26:59.504Z,22.23
2022-12-04T11:29:31.417Z,18.90
2022-12-04T11:32:07.209Z,21.35
2022-12-04T11:34:40.985Z,20.17
2022-12-04T11:37:19.318Z,18.67
2022-12-04T11:39:46.669Z,20.65
2022-12-04T11:42:13.894Z,21.55
2022-12-04T11:44:50.061Z,20.77
2022-12-04T11:47:18.610Z,21.73
2022-12-04T11:49:45.979Z,17.15
2022-12-04T11:52:36.843Z,21.25
2022-12-04T11:55:28.843Z,20.55
2022-12-04T11:58:15.642Z,18.25
2022-12-04T12:00:55.804Z,18.92
2022-12-04T12:03:27.499Z,17.88
2022-12-04T12:06:13.350Z,20.63
2022-12-04T12:08:49.456Z,20.05
2022-12-04T12:11:19.800Z,20.00
2022-12-04T12:13:49.884Z,17.80
2022-12-04T12:16:17.295Z,19.13
2022-12-04T12:18:44.590Z,18.33
2022-12-04T12:21:21.189Z,20.08
2022-12-04T12:24:07.272Z,16.80
2022-12-04T12:26:46.048Z,17.98
2022-12-04T12:29:25.916Z,21.13
2022-12-04T12:32:12.091Z,17.83
2022-12-04T12:34:40.980Z,17.45
2022-12-04T12:37:22.414Z,14.48
2022-12-04T12:39:56.901Z,19.38
2022-12-04T12:42:27.254Z,16.40
2022-12-04T12:45:06.610Z,19.73
2022-12-04T12:47:44.480Z,16.25
2022-12-04T12:50:22.489Z,18.55
2022-12-04T12:53:01.379Z,15.98
2022-12-04T12:55:34.148Z,17.45
2022-12-04T12:58:05.278Z,16.08
2022-12-04T13:00:37.725Z,17.13
2022-12-04T13:03:08.363Z,16.35
2022-12-04T13:05:37.735Z,18.42
2022-12-04T13:08:23.709Z,16.27
2022-12-04T13:10:55.502Z,15.35
2022-12-04T13:13:27.931Z,18.00
2022-12-04T13:16:00.563Z,15.80
2022-12-04T13:18:39.419Z,14.93
2022-12-04T13:21:08.037Z,17.55
2022-12-04T13:23:35.304Z,15.25
2022-12-04T13:26:25.633Z,14.63
2022-12-04T13:29:13.564Z,14.57
2022-12-04T13:31:40.835Z,13.60
2022-12-04T13:34:25.445Z,13.13
2022-12-04T13:36:58.997Z,14.60
2022-12-04T13:39:41.888Z,15.50
2022-12-04T13:42:21.261Z,15.88
2022-12-04T13:44:54.177Z,15.80
2022-12-04T13:47:30.233Z,18.23
2022-12-04T13:50:27.069Z,16.15
2022-12-04T13:52:54.597Z,16.23
2022-12-04T13:55:38.511Z,15.15
2022-12-04T13:58:11.863Z,16.98
2022-12-04T14:00:42.380Z,14.70
2022-12-04T14:03:26.650Z,15.48
2022-12-04T14:05:54.840Z,13.90
2022-12-04T14:08:26.891Z,14.73
2022-12-04T14:10:59.914Z,14.75
2022-12-04T14:13:30.218Z,15.63
2022-12-04T14:16:05.019Z,13.63
2022-12-04T14:18:32.431Z,14.88
2022-12-04T14:21:01.961Z,16.70
2022-12-04T14:23:35.408Z,16.92
2022-12-04T14:26:05.300Z,17.05
2022-12-04T14:28:37.284Z,15.35
2022-12-04T14:31:08.914Z,15.75
2022-12-04T14:33:40.174Z,16.80
2022-12-04T14:36:37.421Z,19.83
2022-12-04T14:39:18.506Z,15.82
2022-12-04T14:41:45.791Z,18.67
2022-12-04T14:44:22.935Z,19.52
2022-12-04T14:46:52.214Z,18.70
2022-12-04T14:49:38.309Z,19.17
2022-12-04T14:52:05.796Z,18.13
2022-12-04T14:54:45.286Z,20.10
2022-12-04T14:57:21.847Z,19.13
2022-12-04T14:59:49.870Z,16.65
2022-12-04T15:02:19.273Z,17.92
2022-12-04T15:04:47.957Z,23.58
2022-12-04T15:07:23.292Z,20.73
2022-12-04T15:10:10.705Z,26.45
2022-12-04T15:12:42.320Z,20.02
2022-12-04T15:15:22.163Z,20.75
2022-12-04T15:17:58.465Z,22.00
2022-12-04T15:20:26.444Z,23.35
2022-12-04T15:22:57.337Z,24.35
2022-12-04T15:25:47.977Z,22.55
2022-12-04T15:28:19.205Z,24.17
2022-12-04T15:30:47.339Z,25.98
2022-12-04T15:33:23.943Z,26.27
2022-12-04T15:36:00.698Z,23.73
2022-12-04T15:38:28.325Z,26.92
2022-12-04T15:40:56.898Z,27.33
2022-12-04T15:43:40.772Z,27.45
2022-12-04T15:46:15.330Z,26.70
2022-12-04T15:48:47.560Z,24.20
2022-12-04T15:51:16.130Z,24.85
2022-12-04T15:53:46.215Z,24.73
2022-12-04T15:56:20.684Z,28.10
2022-12-04T15:58:56.817Z,27.95
2022-12-04T16:01:24.459Z,26.17
2022-12-04T16:03:56.122Z,26.77
2022-12-04T16:06:25.299Z,28.42
2022-12-04T16:08:57.274Z,24.48
2022-12-04T16:11:30.754Z,32.35
2022-12-04T16:14:07.200Z,27.88
2022-12-04T16:16:35.215Z,28.33
2022-12-04T16:19:10.348Z,27.70
2022-12-04T16:21:37.636Z,28.83
2022-12-04T16:24:06.277Z,25.83
2022-12-04T16:26:36.625Z,28.42
2022-12-04T16:29:03.974Z,29.00
2022-12-04T16:31:31.339Z,30.27
2022-12-04T16:33:58.747Z,27.50
2022-12-04T16:36:26.118Z,26.70
2022-12-04T16:38:53.378Z,26.70
2022-12-04T16:41:21.517Z,28.33
2022-12-04T16:43:59.394Z,26.67
2022-12-04T16:46:27.886Z,26.23
2022-12-04T16:48:55.491Z,27.08
2022-12-04T16:51:24.129Z,29.23
2022-12-04T16:53:52.239Z,30.70
2022-12-04T16:56:20.091Z,29.30
2022-12-04T16:58:47.755Z,29.02
2022-12-04T17:01:25.473Z,26.10
2022-12-04T17:03:52.893Z,33.45
2022-12-04T17:06:20.545Z,28.42
2022-12-04T17:08:48.018Z,29.88
2022-12-04T17:11:16.128Z,25.40
2022-12-04T17:13:43.540Z,31.65
2022-12-04T17:16:14.657Z,27.48
2022-12-04T17:18:43.075Z,26.50
2022-12-04T17:21:12.167Z,27.83
2022-12-04T17:23:39.952Z,23.90
2022-12-04T17:26:09.136Z,27.60
2022-12-04T17:28:36.680Z,24.00
2022-12-04T17:31:06.162Z,24.90
2022-12-04T17:33:33.833Z,25.75
2022-12-04T17:36:03.416Z,26.65
2022-12-04T17:38:30.789Z,26.48
2022-12-04T17:41:04.269Z,27.33
2022-12-04T17:43:32.213Z,25.17
2022-12-04T17:45:59.872Z,27.13
2022-12-04T17:48:27.805Z,30.20
2022-12-04T17:51:07.418Z,40.03
2022-12-04T17:53:34.933Z,26.75
2022-12-04T17:56:03.198Z,30.90
2022-12-04T17:58:31.108Z,28.33
2022-12-04T18:01:02.581Z,28.17
2022-12-04T18:03:30.369Z,26.70
2022-12-04T18:05:57.776Z,24.50
2022-12-04T18:08:28.856Z,28.45
2022-12-04T18:10:56.695Z,29.95
2022-12-04T18:13:23.997Z,24.35
2022-12-04T18:15:51.262Z,29.10
2022-12-04T18:18:18.703Z,25.13
2022-12-04T18:20:45.950Z,22.15
2022-12-04T18:23:13.297Z,21.88
2022-12-04T18:25:40.577Z,19.77
2022-12-04T18:28:07.889Z,23.80
2022-12-04T18:30:35.660Z,23.13
2022-12-04T18:33:03.004Z,23.13
2022-12-04T18:35:30.303Z,22.25
2022-12-04T18:37:57.540Z,23.17
2022-12-04T18:40:25.346Z,21.25
2022-12-04T18:42:52.689Z,20.98
2022-12-04T18:45:22.191Z,22.40
2022-12-04T18:47:49.543Z,21.27
2022-12-04T18:50:17.627Z,21.60
2022-12-04T18:52:44.934Z,24.40
2022-12-04T18:55:12.202Z,24.15
2022-12-04T18:57:40.312Z,25.48
2022-12-04T19:00:09.435Z,28.83
2022-12-04T19:02:36.765Z,27.85
2022-12-04T19:05:04.296Z,25.58
2022-12-04T19:07:31.665Z,31.42
2022-12-04T19:10:14.269Z,28.73
2022-12-04T19:12:41.758Z,28.63
2022-12-04T19:15:09.194Z,28.48
2022-12-04T19:17:36.506Z,28.08
2022-12-04T19:20:03.815Z,29.90
2022-12-04T19:22:31.170Z,28.20
2022-12-04T19:24:58.540Z,29.42
2022-12-04T19:27:27.591Z,29.17
2022-12-04T19:29:55.436Z,30.05
2022-12-04T19:32:23.305Z,28.60
2022-12-04T19:34:51.010Z,31.60
2022-12-04T19:37:18.779Z,29.58
2022-12-04T19:39:46.084Z,29.67
2022-12-04T19:42:13.515Z,30.67
2022-12-04T19:44:49.419Z,29.55
2022-12-04T19:47:17.620Z,30.25
2022-12-04T19:49:44.907Z,33.22
2022-12-04T19:52:12.350Z,31.75
2022-12-04T19:54:40.232Z,30.45
2022-12-04T19:57:07.583Z,29.60
2022-12-04T19:59:38.542Z,30.75
2022-12-04T20:02:09.990Z,30.80
2022-12-04T20:04:38.374Z,31.10
2022-12-04T20:07:06.109Z,29.92
2022-12-04T20:09:33.418Z,33.88
2022-12-04T20:12:00.775Z,33.20
2022-12-04T20:14:28.073Z,29.05
2022-12-04T20:16:55.490Z,28.27
2022-12-04T20:19:22.989Z,29.35
2022-12-04T20:21:56.136Z,27.75
2022-12-04T20:24:26.429Z,38.65
2022-12-04T20:26:53.769Z,43.65
2022-12-04T20:29:21.640Z,32.83
2022-12-04T20:31:48.924Z,29.42
2022-12-04T20:34:17.840Z,29.95
2022-12-04T20:36:46.299Z,29.23
2022-12-04T20:39:14.562Z,29.55
2022-12-04T20:41:42.260Z,31.40
2022-12-04T20:44:12.026Z,27.92
2022-12-04T20:49:08.566Z,31.38
2022-12-04T20:51:37.969Z,31.05
2022-12-04T20:54:06.759Z,28.42
2022-12-04T20:56:35.716Z,30.53
2022-12-04T20:59:04.673Z,29.88
2022-12-04T21:01:32.106Z,27.60
2022-12-04T21:03:59.822Z,29.80
2022-12-04T21:06:34.529Z,28.92
2022-12-04T21:09:06.094Z,32.53
2022-12-04T21:11:36.960Z,33.22
2022-12-04T21:14:24.227Z,26.92
2022-12-04T21:16:51.980Z,27.05
2022-12-04T21:19:20.526Z,25.30
2022-12-04T21:21:48.405Z,28.92
2022-12-04T21:24:16.538Z,28.90
2022-12-04T21:26:43.920Z,29.67
2022-12-04T21:29:11.610Z,27.40
2022-12-04T21:31:40.385Z,26.63
2022-12-04T21:34:09.206Z,28.15
2022-12-04T21:36:37.153Z,28.07
2022-12-04T21:39:04.941Z,27.75
2022-12-04T21:41:50.932Z,27.27
2022-12-04T21:44:19.099Z,29.60
2022-12-04T21:46:46.511Z,28.80
2022-12-04T21:49:14.132Z,30.17
2022-12-04T21:51:57.378Z,28.77
2022-12-04T21:54:26.054Z,27.35
2022-12-04T21:56:53.295Z,28.23
2022-12-04T21:59:20.555Z,25.42
2022-12-04T22:01:47.971Z,26.55
2022-12-04T22:04:15.426Z,26.02
2022-12-04T22:06:42.728Z,26.40
2022-12-04T22:09:12.052Z,26.35
2022-12-04T22:11:41.648Z,26.80
2022-12-04T22:14:09.627Z,29.48
2022-12-04T22:16:42.804Z,25.70
2022-12-04T22:19:11.336Z,26.80
2022-12-04T22:21:39.059Z,25.92
2022-12-04T22:24:06.758Z,26.63
2022-12-04T22:26:34.317Z,31.92
2022-12-04T22:29:03.177Z,25.42
2022-12-04T22:31:32.787Z,27.45
2022-12-04T22:34:00.860Z,26.80
2022-12-04T22:36:29.839Z,24.38
2022-12-04T22:39:13.157Z,19.48
2022-12-04T22:41:40.414Z,23.35
2022-12-04T22:44:08.045Z,26.48
2022-12-04T22:46:36.293Z,22.98
2022-12-04T22:49:03.606Z,24.13
2022-12-04T22:51:31.226Z,27.02
2022-12-04T22:53:58.897Z,28.10
2022-12-04T22:56:27.419Z,25.02
2022-12-04T22:58:55.221Z,25.38
2022-12-04T23:01:31.324Z,24.48
2022-12-04T23:03:59.044Z,23.70
2022-12-04T23:06:27.188Z,24.40
2022-12-04T23:08:55.148Z,24.55
2022-12-04T23:11:23.150Z,26.58
2022-12-04T23:13:54.454Z,22.60
2022-12-04T23:16:22.955Z,25.17
2022-12-04T23:18:50.544Z,22.85
2022-12-04T23:21:18.238Z,26.77
2022-12-04T23:23:46.240Z,22.75
2022-12-04T23:26:14.786Z,21.42
2022-12-04T23:28:42.091Z,23.92
2022-12-04T23:31:10.976Z,22.58
2022-12-04T23:33:38.989Z,22.35
2022-12-04T23:36:06.839Z,22.23
2022-12-04T23:38:35.572Z,23.27
2022-12-04T23:41:03.929Z,23.70
2022-12-04T23:43:31.498Z,23.73
2022-12-04T23:45:58.817Z,23.23
2022-12-04T23:48:26.204Z,22.42
2022-12-04T23:50:53.510Z,20.70
2022-12-04T23:53:21.392Z,21.65
2022-12-04T23:55:58.834Z,21.55
2022-12-04T23:58:26.251Z,22.02
